sensor_id;sensor_type;location;lat;lon;timestamp;P1;durP1;ratioP1;P2;durP2;ratioP2
12719;SDS011;6424;48.520;11.228;2023-12-28T00:01:12;5.87;;;4.60;;
12719;SDS011;6424;48.520;11.228;2023-12-28T00:03:56;5.10;;;4.40;;
12719;SDS011;6424;48.520;11.228;2023-12-28T00:06:41;6.20;;;4.50;;
12719;SDS011;6424;48.520;11.228;2023-12-28T00:09:26;7.37;;;4.33;;
12719;SDS011;6424;48.520;11.228;2023-12-28T00:12:10;5.83;;;4.13;;
12719;SDS011;6424;48.520;11.228;2023-12-28T00:14:54;6.13;;;4.20;;
12719;SDS011;6424;48.520;11.228;2023-12-28T00:17:38;6.63;;;4.70;;
12719;SDS011;6424;48.520;11.228;2023-12-28T00:20:22;4.83;;;3.70;;
12719;SDS011;6424;48.520;11.228;2023-12-28T00:23:06;6.27;;;4.27;;
12719;SDS011;6424;48.520;11.228;2023-12-28T00:25:51;4.97;;;3.60;;
12719;SDS011;6424;48.520;11.228;2023-12-28T00:28:35;6.33;;;4.40;;
12719;SDS011;6424;48.520;11.228;2023-12-28T00:31:20;5.77;;;4.07;;
12719;SDS011;6424;48.520;11.228;2023-12-28T00:34:04;5.47;;;3.93;;
12719;SDS011;6424;48.520;11.228;2023-12-28T00:36:48;5.50;;;4.00;;
12719;SDS011;6424;48.520;11.228;2023-12-28T00:39:33;5.03;;;4.20;;
12719;SDS011;6424;48.520;11.228;2023-12-28T00:42:19;5.83;;;4.07;;
12719;SDS011;6424;48.520;11.228;2023-12-28T00:45:04;4.93;;;3.67;;
12719;SDS011;6424;48.520;11.228;2023-12-28T00:47:48;5.40;;;4.50;;
12719;SDS011;6424;48.520;11.228;2023-12-28T00:50:35;4.97;;;3.83;;
12719;SDS011;6424;48.520;11.228;2023-12-28T00:53:19;5.83;;;3.70;;
12719;SDS011;6424;48.520;11.228;2023-12-28T00:56:04;5.00;;;4.17;;
12719;SDS011;6424;48.520;11.228;2023-12-28T00:58:48;7.43;;;4.20;;
12719;SDS011;6424;48.520;11.228;2023-12-28T01:01:32;4.83;;;3.57;;
12719;SDS011;6424;48.520;11.228;2023-12-28T01:04:17;4.97;;;3.50;;
12719;SDS011;6424;48.520;11.228;2023-12-28T01:07:02;3.63;;;3.30;;
12719;SDS011;6424;48.520;11.228;2023-12-28T01:09:49;4.80;;;3.03;;
12719;SDS011;6424;48.520;11.228;2023-12-28T01:12:33;4.63;;;3.40;;
12719;SDS011;6424;48.520;11.228;2023-12-28T01:15:18;4.93;;;2.77;;
12719;SDS011;6424;48.520;11.228;2023-12-28T01:18:04;3.73;;;2.90;;
12719;SDS011;6424;48.520;11.228;2023-12-28T01:20:49;4.73;;;3.23;;
12719;SDS011;6424;48.520;11.228;2023-12-28T01:23:33;5.03;;;3.23;;
12719;SDS011;6424;48.520;11.228;2023-12-28T01:26:17;4.07;;;2.87;;
12719;SDS011;6424;48.520;11.228;2023-12-28T01:29:01;4.23;;;2.93;;
12719;SDS011;6424;48.520;11.228;2023-12-28T01:31:46;3.67;;;3.20;;
12719;SDS011;6424;48.520;11.228;2023-12-28T01:34:30;4.67;;;2.90;;
12719;SDS011;6424;48.520;11.228;2023-12-28T01:37:15;4.37;;;2.40;;
12719;SDS011;6424;48.520;11.228;2023-12-28T01:39:59;2.70;;;2.03;;
12719;SDS011;6424;48.520;11.228;2023-12-28T01:42:44;3.10;;;2.30;;
12719;SDS011;6424;48.520;11.228;2023-12-28T01:45:28;2.67;;;1.73;;
12719;SDS011;6424;48.520;11.228;2023-12-28T01:48:13;4.00;;;2.30;;
12719;SDS011;6424;48.520;11.228;2023-12-28T01:50:58;3.07;;;1.97;;
12719;SDS011;6424;48.520;11.228;2023-12-28T01:53:43;2.30;;;1.83;;
12719;SDS011;6424;48.520;11.228;2023-12-28T01:56:29;2.37;;;1.90;;
12719;SDS011;6424;48.520;11.228;2023-12-28T01:59:13;2.77;;;1.87;;
12719;SDS011;6424;48.520;11.228;2023-12-28T02:01:58;2.50;;;1.80;;
12719;SDS011;6424;48.520;11.228;2023-12-28T02:04:43;2.33;;;1.33;;
12719;SDS011;6424;48.520;11.228;2023-12-28T02:07:29;2.33;;;1.60;;
12719;SDS011;6424;48.520;11.228;2023-12-28T02:10:13;2.73;;;1.83;;
12719;SDS011;6424;48.520;11.228;2023-12-28T02:12:58;2.17;;;1.70;;
12719;SDS011;6424;48.520;11.228;2023-12-28T02:15:42;3.60;;;1.67;;
12719;SDS011;6424;48.520;11.228;2023-12-28T02:18:31;3.43;;;1.50;;
12719;SDS011;6424;48.520;11.228;2023-12-28T02:21:22;1.73;;;1.50;;
12719;SDS011;6424;48.520;11.228;2023-12-28T02:24:08;2.37;;;1.50;;
12719;SDS011;6424;48.520;11.228;2023-12-28T02:26:52;2.50;;;1.70;;
12719;SDS011;6424;48.520;11.228;2023-12-28T02:29:37;2.20;;;1.70;;
12719;SDS011;6424;48.520;11.228;2023-12-28T02:32:24;3.87;;;2.03;;
12719;SDS011;6424;48.520;11.228;2023-12-28T02:35:36;2.80;;;1.53;;
12719;SDS011;6424;48.520;11.228;2023-12-28T02:38:28;1.80;;;1.50;;
12719;SDS011;6424;48.520;11.228;2023-12-28T02:41:14;2.00;;;1.43;;
12719;SDS011;6424;48.520;11.228;2023-12-28T02:44:00;2.57;;;1.80;;
12719;SDS011;6424;48.520;11.228;2023-12-28T02:46:44;2.83;;;1.37;;
12719;SDS011;6424;48.520;11.228;2023-12-28T02:49:28;2.40;;;1.53;;
12719;SDS011;6424;48.520;11.228;2023-12-28T02:52:12;1.80;;;1.47;;
12719;SDS011;6424;48.520;11.228;2023-12-28T02:54:56;2.03;;;1.30;;
12719;SDS011;6424;48.520;11.228;2023-12-28T02:57:41;2.30;;;1.77;;
12719;SDS011;6424;48.520;11.228;2023-12-28T03:00:26;4.03;;;1.70;;
12719;SDS011;6424;48.520;11.228;2023-12-28T03:03:11;3.40;;;1.87;;
12719;SDS011;6424;48.520;11.228;2023-12-28T03:05:55;4.70;;;1.60;;
12719;SDS011;6424;48.520;11.228;2023-12-28T03:08:39;2.27;;;1.70;;
12719;SDS011;6424;48.520;11.228;2023-12-28T03:11:24;2.70;;;1.67;;
12719;SDS011;6424;48.520;11.228;2023-12-28T03:14:08;2.63;;;1.83;;
12719;SDS011;6424;48.520;11.228;2023-12-28T03:16:52;1.43;;;1.33;;
12719;SDS011;6424;48.520;11.228;2023-12-28T03:19:37;4.13;;;1.93;;
12719;SDS011;6424;48.520;11.228;2023-12-28T03:22:21;2.53;;;1.50;;
12719;SDS011;6424;48.520;11.228;2023-12-28T03:25:06;2.10;;;1.50;;
12719;SDS011;6424;48.520;11.228;2023-12-28T03:27:50;2.40;;;1.40;;
12719;SDS011;6424;48.520;11.228;2023-12-28T03:30:35;1.70;;;1.30;;
12719;SDS011;6424;48.520;11.228;2023-12-28T03:33:19;1.90;;;1.67;;
12719;SDS011;6424;48.520;11.228;2023-12-28T03:36:03;1.97;;;1.50;;
12719;SDS011;6424;48.520;11.228;2023-12-28T03:38:48;1.87;;;1.40;;
12719;SDS011;6424;48.520;11.228;2023-12-28T03:41:32;3.17;;;1.80;;
12719;SDS011;6424;48.520;11.228;2023-12-28T03:44:17;2.63;;;1.60;;
12719;SDS011;6424;48.520;11.228;2023-12-28T03:47:01;2.07;;;1.50;;
12719;SDS011;6424;48.520;11.228;2023-12-28T03:49:45;2.13;;;1.80;;
12719;SDS011;6424;48.520;11.228;2023-12-28T03:52:29;2.40;;;1.70;;
12719;SDS011;6424;48.520;11.228;2023-12-28T03:55:13;2.63;;;1.40;;
12719;SDS011;6424;48.520;11.228;2023-12-28T03:57:57;1.87;;;1.40;;
12719;SDS011;6424;48.520;11.228;2023-12-28T04:00:42;2.40;;;1.40;;
12719;SDS011;6424;48.520;11.228;2023-12-28T04:03:27;1.90;;;1.40;;
12719;SDS011;6424;48.520;11.228;2023-12-28T04:06:11;1.97;;;1.43;;
12719;SDS011;6424;48.520;11.228;2023-12-28T04:08:59;2.43;;;1.50;;
12719;SDS011;6424;48.520;11.228;2023-12-28T04:11:43;2.83;;;1.60;;
12719;SDS011;6424;48.520;11.228;2023-12-28T04:14:27;2.33;;;1.27;;
12719;SDS011;6424;48.520;11.228;2023-12-28T04:17:11;1.57;;;1.30;;
12719;SDS011;6424;48.520;11.228;2023-12-28T04:19:55;2.30;;;1.47;;
12719;SDS011;6424;48.520;11.228;2023-12-28T04:22:39;2.87;;;1.33;;
12719;SDS011;6424;48.520;11.228;2023-12-28T04:25:25;4.30;;;1.40;;
12719;SDS011;6424;48.520;11.228;2023-12-28T04:28:09;1.63;;;1.40;;
12719;SDS011;6424;48.520;11.228;2023-12-28T04:30:54;1.67;;;1.37;;
12719;SDS011;6424;48.520;11.228;2023-12-28T04:33:38;1.40;;;1.27;;
12719;SDS011;6424;48.520;11.228;2023-12-28T04:36:23;2.63;;;1.57;;
12719;SDS011;6424;48.520;11.228;2023-12-28T04:39:07;3.73;;;1.50;;
12719;SDS011;6424;48.520;11.228;2023-12-28T04:41:51;2.13;;;1.30;;
12719;SDS011;6424;48.520;11.228;2023-12-28T04:44:37;2.00;;;1.47;;
12719;SDS011;6424;48.520;11.228;2023-12-28T04:47:22;3.13;;;1.63;;
12719;SDS011;6424;48.520;11.228;2023-12-28T04:50:06;2.27;;;1.60;;
12719;SDS011;6424;48.520;11.228;2023-12-28T04:52:51;2.70;;;1.70;;
12719;SDS011;6424;48.520;11.228;2023-12-28T04:55:35;2.93;;;2.03;;
12719;SDS011;6424;48.520;11.228;2023-12-28T04:58:20;1.47;;;1.37;;
12719;SDS011;6424;48.520;11.228;2023-12-28T05:01:04;1.77;;;1.20;;
12719;SDS011;6424;48.520;11.228;2023-12-28T05:03:48;1.93;;;1.30;;
12719;SDS011;6424;48.520;11.228;2023-12-28T05:06:33;1.87;;;1.33;;
12719;SDS011;6424;48.520;11.228;2023-12-28T05:09:17;2.30;;;1.40;;
12719;SDS011;6424;48.520;11.228;2023-12-28T05:12:02;1.83;;;1.13;;
12719;SDS011;6424;48.520;11.228;2023-12-28T05:14:46;1.97;;;1.47;;
12719;SDS011;6424;48.520;11.228;2023-12-28T05:17:30;1.43;;;1.33;;
12719;SDS011;6424;48.520;11.228;2023-12-28T05:20:14;1.63;;;1.30;;
12719;SDS011;6424;48.520;11.228;2023-12-28T05:22:58;3.30;;;1.50;;
12719;SDS011;6424;48.520;11.228;2023-12-28T05:25:42;1.40;;;1.20;;
12719;SDS011;6424;48.520;11.228;2023-12-28T05:28:26;1.80;;;1.20;;
12719;SDS011;6424;48.520;11.228;2023-12-28T05:31:10;2.00;;;1.30;;
12719;SDS011;6424;48.520;11.228;2023-12-28T05:33:57;2.07;;;1.53;;
12719;SDS011;6424;48.520;11.228;2023-12-28T05:36:42;1.63;;;1.13;;
12719;SDS011;6424;48.520;11.228;2023-12-28T05:39:28;1.50;;;1.20;;
12719;SDS011;6424;48.520;11.228;2023-12-28T05:42:13;1.47;;;1.30;;
12719;SDS011;6424;48.520;11.228;2023-12-28T05:44:57;1.77;;;1.27;;
12719;SDS011;6424;48.520;11.228;2023-12-28T05:47:41;2.63;;;1.50;;
12719;SDS011;6424;48.520;11.228;2023-12-28T05:50:26;3.13;;;1.30;;
12719;SDS011;6424;48.520;11.228;2023-12-28T05:53:10;2.00;;;1.30;;
12719;SDS011;6424;48.520;11.228;2023-12-28T05:55:57;1.87;;;1.30;;
12719;SDS011;6424;48.520;11.228;2023-12-28T05:58:46;1.80;;;1.10;;
12719;SDS011;6424;48.520;11.228;2023-12-28T06:01:30;2.33;;;1.40;;
12719;SDS011;6424;48.520;11.228;2023-12-28T06:04:15;2.43;;;1.40;;
12719;SDS011;6424;48.520;11.228;2023-12-28T06:06:59;1.83;;;1.20;;
12719;SDS011;6424;48.520;11.228;2023-12-28T06:09:43;1.60;;;1.37;;
12719;SDS011;6424;48.520;11.228;2023-12-28T06:12:29;1.50;;;1.10;;
12719;SDS011;6424;48.520;11.228;2023-12-28T06:15:14;2.53;;;1.20;;
12719;SDS011;6424;48.520;11.228;2023-12-28T06:17:58;1.90;;;1.20;;
12719;SDS011;6424;48.520;11.228;2023-12-28T06:20:42;2.60;;;1.17;;
12719;SDS011;6424;48.520;11.228;2023-12-28T06:23:27;1.40;;;1.00;;
12719;SDS011;6424;48.520;11.228;2023-12-28T06:26:11;2.53;;;1.33;;
12719;SDS011;6424;48.520;11.228;2023-12-28T06:28:56;1.57;;;1.20;;
12719;SDS011;6424;48.520;11.228;2023-12-28T06:31:40;2.43;;;1.20;;
12719;SDS011;6424;48.520;11.228;2023-12-28T06:34:24;1.43;;;1.10;;
12719;SDS011;6424;48.520;11.228;2023-12-28T06:37:10;1.53;;;1.43;;
12719;SDS011;6424;48.520;11.228;2023-12-28T06:39:54;2.17;;;1.30;;
12719;SDS011;6424;48.520;11.228;2023-12-28T06:42:38;1.50;;;1.00;;
12719;SDS011;6424;48.520;11.228;2023-12-28T06:45:23;1.90;;;1.27;;
12719;SDS011;6424;48.520;11.228;2023-12-28T06:48:11;1.87;;;1.10;;
12719;SDS011;6424;48.520;11.228;2023-12-28T06:50:56;2.10;;;1.70;;
12719;SDS011;6424;48.520;11.228;2023-12-28T06:53:40;3.33;;;2.40;;
12719;SDS011;6424;48.520;11.228;2023-12-28T06:56:25;2.97;;;1.07;;
12719;SDS011;6424;48.520;11.228;2023-12-28T06:59:09;1.37;;;1.20;;
12719;SDS011;6424;48.520;11.228;2023-12-28T07:01:55;1.77;;;1.57;;
12719;SDS011;6424;48.520;11.228;2023-12-28T07:04:40;2.17;;;1.30;;
12719;SDS011;6424;48.520;11.228;2023-12-28T07:07:24;1.53;;;1.17;;
12719;SDS011;6424;48.520;11.228;2023-12-28T07:10:08;1.47;;;1.20;;
12719;SDS011;6424;48.520;11.228;2023-12-28T07:12:52;1.13;;;1.03;;
12719;SDS011;6424;48.520;11.228;2023-12-28T07:15:37;1.20;;;1.10;;
12719;SDS011;6424;48.520;11.228;2023-12-28T07:18:21;1.27;;;1.03;;
12719;SDS011;6424;48.520;11.228;2023-12-28T07:21:05;1.40;;;1.03;;
12719;SDS011;6424;48.520;11.228;2023-12-28T07:23:53;1.50;;;1.40;;
12719;SDS011;6424;48.520;11.228;2023-12-28T07:26:37;1.43;;;1.07;;
12719;SDS011;6424;48.520;11.228;2023-12-28T07:29:22;2.53;;;1.20;;
12719;SDS011;6424;48.520;11.228;2023-12-28T07:32:06;1.47;;;1.37;;
12719;SDS011;6424;48.520;11.228;2023-12-28T07:34:53;2.47;;;1.73;;
12719;SDS011;6424;48.520;11.228;2023-12-28T07:37:38;4.00;;;3.00;;
12719;SDS011;6424;48.520;11.228;2023-12-28T07:40:22;3.33;;;1.43;;
12719;SDS011;6424;48.520;11.228;2023-12-28T07:43:06;2.00;;;1.80;;
12719;SDS011;6424;48.520;11.228;2023-12-28T07:45:51;2.83;;;1.57;;
12719;SDS011;6424;48.520;11.228;2023-12-28T07:48:35;2.00;;;1.60;;
12719;SDS011;6424;48.520;11.228;2023-12-28T07:51:19;2.80;;;1.67;;
12719;SDS011;6424;48.520;11.228;2023-12-28T07:54:04;1.87;;;1.50;;
12719;SDS011;6424;48.520;11.228;2023-12-28T07:56:48;1.90;;;1.33;;
12719;SDS011;6424;48.520;11.228;2023-12-28T07:59:33;1.33;;;1.10;;
12719;SDS011;6424;48.520;11.228;2023-12-28T08:02:18;1.97;;;1.40;;
12719;SDS011;6424;48.520;11.228;2023-12-28T08:05:03;2.00;;;1.43;;
12719;SDS011;6424;48.520;11.228;2023-12-28T08:07:48;2.77;;;1.30;;
12719;SDS011;6424;48.520;11.228;2023-12-28T08:10:32;1.70;;;1.47;;
12719;SDS011;6424;48.520;11.228;2023-12-28T08:13:16;1.77;;;1.13;;
12719;SDS011;6424;48.520;11.228;2023-12-28T08:16:01;1.90;;;1.40;;
12719;SDS011;6424;48.520;11.228;2023-12-28T08:18:46;3.30;;;1.07;;
12719;SDS011;6424;48.520;11.228;2023-12-28T08:21:31;2.33;;;1.07;;
12719;SDS011;6424;48.520;11.228;2023-12-28T08:24:15;2.03;;;1.13;;
12719;SDS011;6424;48.520;11.228;2023-12-28T08:27:00;1.80;;;1.30;;
12719;SDS011;6424;48.520;11.228;2023-12-28T08:29:45;3.20;;;1.23;;
12719;SDS011;6424;48.520;11.228;2023-12-28T08:32:29;1.40;;;1.20;;
12719;SDS011;6424;48.520;11.228;2023-12-28T08:35:14;1.80;;;1.30;;
12719;SDS011;6424;48.520;11.228;2023-12-28T08:37:59;1.80;;;1.20;;
12719;SDS011;6424;48.520;11.228;2023-12-28T08:40:43;2.27;;;1.13;;
12719;SDS011;6424;48.520;11.228;2023-12-28T08:43:30;1.87;;;1.33;;
12719;SDS011;6424;48.520;11.228;2023-12-28T08:46:14;1.57;;;1.30;;
12719;SDS011;6424;48.520;11.228;2023-12-28T08:48:58;2.23;;;1.50;;
12719;SDS011;6424;48.520;11.228;2023-12-28T08:51:42;1.93;;;1.50;;
12719;SDS011;6424;48.520;11.228;2023-12-28T08:54:27;1.70;;;1.50;;
12719;SDS011;6424;48.520;11.228;2023-12-28T08:57:11;1.93;;;1.60;;
12719;SDS011;6424;48.520;11.228;2023-12-28T08:59:55;5.43;;;4.47;;
12719;SDS011;6424;48.520;11.228;2023-12-28T09:02:39;3.67;;;2.90;;
12719;SDS011;6424;48.520;11.228;2023-12-28T09:05:23;2.63;;;1.73;;
12719;SDS011;6424;48.520;11.228;2023-12-28T09:08:07;3.33;;;1.77;;
12719;SDS011;6424;48.520;11.228;2023-12-28T09:10:52;2.23;;;1.80;;
12719;SDS011;6424;48.520;11.228;2023-12-28T09:13:36;2.40;;;1.83;;
12719;SDS011;6424;48.520;11.228;2023-12-28T09:16:20;2.90;;;2.50;;
12719;SDS011;6424;48.520;11.228;2023-12-28T09:19:05;3.93;;;2.33;;
12719;SDS011;6424;48.520;11.228;2023-12-28T09:21:50;3.53;;;1.90;;
12719;SDS011;6424;48.520;11.228;2023-12-28T09:24:34;3.23;;;2.20;;
12719;SDS011;6424;48.520;11.228;2023-12-28T09:27:18;3.20;;;2.03;;
12719;SDS011;6424;48.520;11.228;2023-12-28T09:30:03;3.23;;;2.10;;
12719;SDS011;6424;48.520;11.228;2023-12-28T09:32:47;3.40;;;1.90;;
12719;SDS011;6424;48.520;11.228;2023-12-28T09:35:31;2.47;;;1.97;;
12719;SDS011;6424;48.520;11.228;2023-12-28T09:38:15;3.07;;;2.20;;
12719;SDS011;6424;48.520;11.228;2023-12-28T09:41:06;2.60;;;2.40;;
12719;SDS011;6424;48.520;11.228;2023-12-28T09:46:49;9.27;;;3.60;;
12719;SDS011;6424;48.520;11.228;2023-12-28T09:49:33;4.00;;;2.17;;
12719;SDS011;6424;48.520;11.228;2023-12-28T09:52:20;4.93;;;2.67;;
12719;SDS011;6424;48.520;11.228;2023-12-28T09:55:04;2.40;;;2.13;;
12719;SDS011;6424;48.520;11.228;2023-12-28T09:57:48;2.43;;;2.03;;
12719;SDS011;6424;48.520;11.228;2023-12-28T10:00:33;2.70;;;1.80;;
12719;SDS011;6424;48.520;11.228;2023-12-28T10:03:17;3.07;;;1.70;;
12719;SDS011;6424;48.520;11.228;2023-12-28T10:06:02;3.43;;;1.57;;
12719;SDS011;6424;48.520;11.228;2023-12-28T10:08:47;3.20;;;1.60;;
12719;SDS011;6424;48.520;11.228;2023-12-28T10:11:32;2.30;;;1.60;;
12719;SDS011;6424;48.520;11.228;2023-12-28T10:14:17;2.00;;;1.67;;
12719;SDS011;6424;48.520;11.228;2023-12-28T10:17:03;3.73;;;1.87;;
12719;SDS011;6424;48.520;11.228;2023-12-28T10:19:47;3.37;;;1.60;;
12719;SDS011;6424;48.520;11.228;2023-12-28T10:22:31;2.17;;;1.50;;
12719;SDS011;6424;48.520;11.228;2023-12-28T10:25:16;2.80;;;1.50;;
12719;SDS011;6424;48.520;11.228;2023-12-28T10:28:04;2.70;;;1.57;;
12719;SDS011;6424;48.520;11.228;2023-12-28T10:30:55;2.60;;;1.60;;
12719;SDS011;6424;48.520;11.228;2023-12-28T10:33:40;2.20;;;1.70;;
12719;SDS011;6424;48.520;11.228;2023-12-28T10:36:25;2.10;;;1.57;;
12719;SDS011;6424;48.520;11.228;2023-12-28T10:39:11;2.87;;;1.50;;
12719;SDS011;6424;48.520;11.228;2023-12-28T10:41:58;2.67;;;1.60;;
12719;SDS011;6424;48.520;11.228;2023-12-28T10:44:46;2.47;;;1.67;;
12719;SDS011;6424;48.520;11.228;2023-12-28T10:47:37;1.60;;;1.50;;
12719;SDS011;6424;48.520;11.228;2023-12-28T10:50:26;1.70;;;1.23;;
12719;SDS011;6424;48.520;11.228;2023-12-28T10:53:33;2.70;;;1.60;;
12719;SDS011;6424;48.520;11.228;2023-12-28T10:56:44;3.13;;;1.57;;
12719;SDS011;6424;48.520;11.228;2023-12-28T11:02:52;2.63;;;1.90;;
12719;SDS011;6424;48.520;11.228;2023-12-28T11:05:37;2.67;;;1.60;;
12719;SDS011;6424;48.520;11.228;2023-12-28T11:08:23;2.27;;;1.30;;
12719;SDS011;6424;48.520;11.228;2023-12-28T11:11:08;2.00;;;1.50;;
12719;SDS011;6424;48.520;11.228;2023-12-28T11:13:54;2.43;;;2.03;;
12719;SDS011;6424;48.520;11.228;2023-12-28T11:16:39;2.03;;;1.77;;
12719;SDS011;6424;48.520;11.228;2023-12-28T11:19:25;2.53;;;1.87;;
12719;SDS011;6424;48.520;11.228;2023-12-28T11:22:11;2.43;;;1.87;;
12719;SDS011;6424;48.520;11.228;2023-12-28T11:24:56;2.70;;;1.90;;
12719;SDS011;6424;48.520;11.228;2023-12-28T11:27:40;3.47;;;2.00;;
12719;SDS011;6424;48.520;11.228;2023-12-28T11:30:26;2.43;;;1.97;;
12719;SDS011;6424;48.520;11.228;2023-12-28T11:33:11;3.63;;;1.93;;
12719;SDS011;6424;48.520;11.228;2023-12-28T11:35:55;4.10;;;2.10;;
12719;SDS011;6424;48.520;11.228;2023-12-28T11:38:42;2.00;;;1.50;;
12719;SDS011;6424;48.520;11.228;2023-12-28T11:41:26;3.13;;;1.80;;
12719;SDS011;6424;48.520;11.228;2023-12-28T11:44:11;3.33;;;2.27;;
12719;SDS011;6424;48.520;11.228;2023-12-28T11:46:55;2.60;;;1.87;;
12719;SDS011;6424;48.520;11.228;2023-12-28T11:49:43;5.10;;;3.83;;
12719;SDS011;6424;48.520;11.228;2023-12-28T11:52:30;3.80;;;2.33;;
12719;SDS011;6424;48.520;11.228;2023-12-28T11:55:22;4.40;;;3.90;;
12719;SDS011;6424;48.520;11.228;2023-12-28T11:58:07;8.57;;;7.40;;
12719;SDS011;6424;48.520;11.228;2023-12-28T12:00:51;6.90;;;5.23;;
12719;SDS011;6424;48.520;11.228;2023-12-28T12:03:35;4.63;;;3.40;;
12719;SDS011;6424;48.520;11.228;2023-12-28T12:06:19;4.43;;;3.73;;
12719;SDS011;6424;48.520;11.228;2023-12-28T12:09:03;4.67;;;3.10;;
12719;SDS011;6424;48.520;11.228;2023-12-28T12:11:48;2.77;;;2.27;;
12719;SDS011;6424;48.520;11.228;2023-12-28T12:14:32;5.03;;;4.03;;
12719;SDS011;6424;48.520;11.228;2023-12-28T12:17:18;9.43;;;6.03;;
12719;SDS011;6424;48.520;11.228;2023-12-28T12:20:03;7.83;;;5.73;;
12719;SDS011;6424;48.520;11.228;2023-12-28T12:22:47;9.33;;;7.27;;
12719;SDS011;6424;48.520;11.228;2023-12-28T12:25:32;6.23;;;4.43;;
12719;SDS011;6424;48.520;11.228;2023-12-28T12:28:16;4.50;;;3.40;;
12719;SDS011;6424;48.520;11.228;2023-12-28T12:31:01;5.33;;;4.83;;
12719;SDS011;6424;48.520;11.228;2023-12-28T12:33:46;6.00;;;3.60;;
12719;SDS011;6424;48.520;11.228;2023-12-28T12:36:31;6.90;;;4.37;;
12719;SDS011;6424;48.520;11.228;2023-12-28T12:39:15;5.13;;;4.30;;
12719;SDS011;6424;48.520;11.228;2023-12-28T12:41:59;2.87;;;2.37;;
12719;SDS011;6424;48.520;11.228;2023-12-28T12:44:44;3.87;;;2.60;;
12719;SDS011;6424;48.520;11.228;2023-12-28T12:47:32;2.77;;;2.20;;
12719;SDS011;6424;48.520;11.228;2023-12-28T12:50:18;2.80;;;2.13;;
12719;SDS011;6424;48.520;11.228;2023-12-28T12:53:06;2.80;;;1.97;;
12719;SDS011;6424;48.520;11.228;2023-12-28T12:55:53;3.30;;;2.77;;
12719;SDS011;6424;48.520;11.228;2023-12-28T12:58:39;8.87;;;5.10;;
12719;SDS011;6424;48.520;11.228;2023-12-28T13:01:23;10.53;;;6.53;;
12719;SDS011;6424;48.520;11.228;2023-12-28T13:04:08;6.60;;;4.50;;
12719;SDS011;6424;48.520;11.228;2023-12-28T13:06:53;5.80;;;4.20;;
12719;SDS011;6424;48.520;11.228;2023-12-28T13:09:37;2.67;;;2.20;;
12719;SDS011;6424;48.520;11.228;2023-12-28T13:12:22;2.37;;;1.97;;
12719;SDS011;6424;48.520;11.228;2023-12-28T13:15:08;2.03;;;1.60;;
12719;SDS011;6424;48.520;11.228;2023-12-28T13:17:53;2.00;;;1.30;;
12719;SDS011;6424;48.520;11.228;2023-12-28T13:20:38;2.23;;;1.80;;
12719;SDS011;6424;48.520;11.228;2023-12-28T13:23:22;1.90;;;1.63;;
12719;SDS011;6424;48.520;11.228;2023-12-28T13:26:06;2.87;;;2.10;;
12719;SDS011;6424;48.520;11.228;2023-12-28T13:28:51;2.63;;;1.80;;
12719;SDS011;6424;48.520;11.228;2023-12-28T13:31:35;1.60;;;1.40;;
12719;SDS011;6424;48.520;11.228;2023-12-28T13:34:19;3.20;;;1.50;;
12719;SDS011;6424;48.520;11.228;2023-12-28T13:37:04;1.50;;;1.20;;
12719;SDS011;6424;48.520;11.228;2023-12-28T13:39:48;1.97;;;1.77;;
12719;SDS011;6424;48.520;11.228;2023-12-28T13:42:33;1.77;;;1.40;;
12719;SDS011;6424;48.520;11.228;2023-12-28T13:45:17;1.53;;;1.40;;
12719;SDS011;6424;48.520;11.228;2023-12-28T13:48:01;2.07;;;1.40;;
12719;SDS011;6424;48.520;11.228;2023-12-28T13:50:45;1.60;;;1.17;;
12719;SDS011;6424;48.520;11.228;2023-12-28T13:53:30;2.40;;;1.30;;
12719;SDS011;6424;48.520;11.228;2023-12-28T13:56:15;2.63;;;1.67;;
12719;SDS011;6424;48.520;11.228;2023-12-28T13:58:59;2.10;;;1.33;;
12719;SDS011;6424;48.520;11.228;2023-12-28T14:01:43;4.70;;;1.57;;
12719;SDS011;6424;48.520;11.228;2023-12-28T14:04:28;2.33;;;1.30;;
12719;SDS011;6424;48.520;11.228;2023-12-28T14:07:13;2.43;;;1.53;;
12719;SDS011;6424;48.520;11.228;2023-12-28T14:09:56;2.17;;;1.67;;
12719;SDS011;6424;48.520;11.228;2023-12-28T14:12:41;2.90;;;1.57;;
12719;SDS011;6424;48.520;11.228;2023-12-28T14:15:25;1.73;;;1.60;;
12719;SDS011;6424;48.520;11.228;2023-12-28T14:18:09;1.70;;;1.50;;
12719;SDS011;6424;48.520;11.228;2023-12-28T14:20:53;1.53;;;1.20;;
12719;SDS011;6424;48.520;11.228;2023-12-28T14:23:37;2.97;;;1.40;;
12719;SDS011;6424;48.520;11.228;2023-12-28T14:26:21;2.30;;;1.57;;
12719;SDS011;6424;48.520;11.228;2023-12-28T14:29:06;2.03;;;1.50;;
12719;SDS011;6424;48.520;11.228;2023-12-28T14:31:51;2.17;;;1.20;;
12719;SDS011;6424;48.520;11.228;2023-12-28T14:34:36;2.27;;;1.67;;
12719;SDS011;6424;48.520;11.228;2023-12-28T14:37:20;3.10;;;1.57;;
12719;SDS011;6424;48.520;11.228;2023-12-28T14:40:05;10.70;;;4.03;;
12719;SDS011;6424;48.520;11.228;2023-12-28T14:42:50;9.37;;;5.00;;
12719;SDS011;6424;48.520;11.228;2023-12-28T14:45:34;8.73;;;4.27;;
12719;SDS011;6424;48.520;11.228;2023-12-28T14:48:18;5.70;;;2.40;;
12719;SDS011;6424;48.520;11.228;2023-12-28T14:51:02;2.57;;;1.77;;
12719;SDS011;6424;48.520;11.228;2023-12-28T14:53:47;3.07;;;1.73;;
12719;SDS011;6424;48.520;11.228;2023-12-28T14:56:31;2.13;;;1.67;;
12719;SDS011;6424;48.520;11.228;2023-12-28T14:59:15;2.20;;;1.90;;
12719;SDS011;6424;48.520;11.228;2023-12-28T15:01:59;3.50;;;1.70;;
12719;SDS011;6424;48.520;11.228;2023-12-28T15:04:43;2.03;;;1.70;;
12719;SDS011;6424;48.520;11.228;2023-12-28T15:07:28;1.70;;;1.20;;
12719;SDS011;6424;48.520;11.228;2023-12-28T15:10:13;3.77;;;1.90;;
12719;SDS011;6424;48.520;11.228;2023-12-28T15:12:58;1.60;;;1.33;;
12719;SDS011;6424;48.520;11.228;2023-12-28T15:15:43;2.07;;;1.60;;
12719;SDS011;6424;48.520;11.228;2023-12-28T15:18:28;3.07;;;1.63;;
12719;SDS011;6424;48.520;11.228;2023-12-28T15:21:13;2.60;;;1.70;;
12719;SDS011;6424;48.520;11.228;2023-12-28T15:23:58;2.63;;;1.87;;
12719;SDS011;6424;48.520;11.228;2023-12-28T15:26:44;2.13;;;1.53;;
12719;SDS011;6424;48.520;11.228;2023-12-28T15:29:29;3.27;;;1.90;;
12719;SDS011;6424;48.520;11.228;2023-12-28T15:32:14;2.00;;;1.57;;
12719;SDS011;6424;48.520;11.228;2023-12-28T15:34:58;3.27;;;1.90;;
12719;SDS011;6424;48.520;11.228;2023-12-28T15:37:42;4.90;;;2.03;;
12719;SDS011;6424;48.520;11.228;2023-12-28T15:40:26;3.90;;;2.10;;
12719;SDS011;6424;48.520;11.228;2023-12-28T15:43:10;4.20;;;2.43;;
12719;SDS011;6424;48.520;11.228;2023-12-28T15:45:55;3.20;;;2.53;;
12719;SDS011;6424;48.520;11.228;2023-12-28T15:48:39;1.80;;;1.53;;
12719;SDS011;6424;48.520;11.228;2023-12-28T15:51:23;2.20;;;1.80;;
12719;SDS011;6424;48.520;11.228;2023-12-28T15:54:08;2.03;;;1.50;;
12719;SDS011;6424;48.520;11.228;2023-12-28T15:56:52;2.20;;;1.80;;
12719;SDS011;6424;48.520;11.228;2023-12-28T15:59:36;1.50;;;1.40;;
12719;SDS011;6424;48.520;11.228;2023-12-28T16:02:20;1.63;;;1.37;;
12719;SDS011;6424;48.520;11.228;2023-12-28T16:05:05;2.50;;;1.57;;
12719;SDS011;6424;48.520;11.228;2023-12-28T16:07:49;3.67;;;1.80;;
12719;SDS011;6424;48.520;11.228;2023-12-28T16:10:33;2.60;;;1.50;;
12719;SDS011;6424;48.520;11.228;2023-12-28T16:13:18;4.67;;;2.13;;
12719;SDS011;6424;48.520;11.228;2023-12-28T16:16:03;2.53;;;2.00;;
12719;SDS011;6424;48.520;11.228;2023-12-28T16:18:48;3.30;;;2.30;;
12719;SDS011;6424;48.520;11.228;2023-12-28T16:21:32;4.50;;;2.43;;
12719;SDS011;6424;48.520;11.228;2023-12-28T16:24:17;12.60;;;6.80;;
12719;SDS011;6424;48.520;11.228;2023-12-28T16:27:01;4.40;;;3.20;;
12719;SDS011;6424;48.520;11.228;2023-12-28T16:29:46;19.93;;;11.07;;
12719;SDS011;6424;48.520;11.228;2023-12-28T16:32:30;8.57;;;5.50;;
12719;SDS011;6424;48.520;11.228;2023-12-28T16:35:15;5.90;;;3.60;;
12719;SDS011;6424;48.520;11.228;2023-12-28T16:37:59;2.83;;;1.80;;
12719;SDS011;6424;48.520;11.228;2023-12-28T16:40:43;2.93;;;2.40;;